Time;durP1;ratioP1;P1;durP2;ratioP2;P2;SDS_P1;SDS_P2;PMS_P1;PMS_P2;Temp;Humidity;BMP_temperature;BMP_pressure;BME280_temperature;BME280_humidity;BME280_pressure;Samples;Min_cycle;Max_cycle;Signal;HPM_P1;HPM_P2
2023/05/07 00:02:09;;;;;;;23.35;20.83;;;15.10;99.90;;;;;;4996062;28;20311;-81
2023/05/07 00:04:37;;;;;;;25.88;23.02;;;15.10;99.90;;;;;;4996440;28;20672;-83
2023/05/07 00:07:04;;;;;;;22.52;20.15;;;15.10;99.90;;;;;;4995704;28;20236;-83
2023/05/07 00:09:31;;;;;;;22.88;20.48;;;15.10;99.90;;;;;;4996634;28;20236;-84
2023/05/07 00:11:58;;;;;;;23.00;20.38;;;15.10;99.90;;;;;;4996554;28;20612;-82
2023/05/07 00:14:25;;;;;;;20.45;18.33;;;15.00;99.90;;;;;;4994406;28;20786;-81
2023/05/07 00:16:53;;;;;;;20.27;18.17;;;15.00;99.90;;;;;;4995502;28;20247;-80
2023/05/07 00:19:20;;;;;;;20.23;18.15;;;15.00;99.90;;;;;;4995670;28;20595;-80
2023/05/07 00:21:46;;;;;;;21.55;19.30;;;15.10;99.90;;;;;;4996195;28;20673;-83
2023/05/07 00:24:13;;;;;;;20.73;18.15;;;15.00;99.90;;;;;;4995418;28;20287;-81
2023/05/07 00:26:40;;;;;;;20.88;18.90;;;15.10;99.90;;;;;;4995329;28;20296;-79
2023/05/07 00:29:07;;;;;;;22.52;20.40;;;15.00;99.90;;;;;;4994832;28;20215;-79
2023/05/07 00:31:35;;;;;;;24.42;21.75;;;15.00;99.90;;;;;;4994752;28;20227;-81
2023/05/07 00:34:03;;;;;;;24.45;21.80;;;15.00;99.90;;;;;;4995341;28;20204;-80
2023/05/07 00:36:30;;;;;;;26.58;23.33;;;15.00;99.90;;;;;;4994827;28;20196;-80
2023/05/07 00:39:00;;;;;;;26.63;23.88;;;15.00;99.90;;;;;;4994408;28;20248;-80
2023/05/07 00:41:26;;;;;;;24.65;21.83;;;15.00;99.90;;;;;;4995026;28;20266;-79
2023/05/07 00:43:53;;;;;;;26.75;23.63;;;15.00;99.90;;;;;;4994577;28;20222;-80
2023/05/07 00:46:22;;;;;;;25.52;23.02;;;14.90;99.90;;;;;;4994622;28;20216;-80
2023/05/07 00:48:50;;;;;;;25.77;23.13;;;14.90;99.90;;;;;;4994844;28;20211;-80
2023/05/07 00:51:19;;;;;;;22.15;19.95;;;14.90;99.90;;;;;;4994159;28;20500;-78
2023/05/07 00:53:47;;;;;;;23.73;21.38;;;14.90;99.90;;;;;;4994845;28;20291;-79
2023/05/07 00:56:14;;;;;;;22.20;19.90;;;14.90;99.90;;;;;;4994688;28;20207;-78
2023/05/07 00:58:41;;;;;;;24.95;22.25;;;14.90;99.90;;;;;;4993917;28;20207;-80
2023/05/07 01:01:08;;;;;;;26.95;24.08;;;14.90;99.90;;;;;;4994331;28;20243;-80
2023/05/07 01:03:35;;;;;;;28.88;25.73;;;14.90;99.90;;;;;;4994489;28;20216;-80
2023/05/07 01:06:03;;;;;;;29.08;25.98;;;14.90;99.90;;;;;;4993537;28;20200;-79
2023/05/07 01:08:34;;;;;;;29.35;25.58;;;14.80;99.90;;;;;;4994661;28;20200;-79
2023/05/07 01:11:02;;;;;;;29.08;25.75;;;14.80;99.90;;;;;;4994701;28;20231;-79
2023/05/07 01:13:29;;;;;;;29.63;25.67;;;14.80;99.90;;;;;;4993799;28;20231;-80
2023/05/07 01:15:56;;;;;;;31.17;27.55;;;14.80;99.90;;;;;;4994335;28;20356;-78
2023/05/07 01:18:25;;;;;;;26.95;24.20;;;14.80;99.90;;;;;;4994393;28;20291;-78
2023/05/07 01:20:53;;;;;;;29.02;25.85;;;14.80;99.90;;;;;;4992669;28;20232;-78
2023/05/07 01:23:21;;;;;;;28.02;24.95;;;14.80;99.90;;;;;;4993905;28;20254;-78
2023/05/07 01:25:53;;;;;;;29.90;26.52;;;14.80;99.90;;;;;;4992903;28;20220;-80
2023/05/07 01:28:20;;;;;;;25.23;22.63;;;14.80;99.90;;;;;;4993519;28;20211;-78
2023/05/07 01:30:51;;;;;;;31.17;27.65;;;14.80;99.90;;;;;;4993695;28;20214;-80
2023/05/07 01:33:21;;;;;;;33.30;28.70;;;14.80;99.90;;;;;;4993622;28;20207;-79
2023/05/07 01:35:51;;;;;;;39.50;34.47;;;14.80;99.90;;;;;;4994320;28;20195;-80
2023/05/07 01:38:19;;;;;;;36.67;32.05;;;14.80;99.90;;;;;;4993359;28;20235;-79
2023/05/07 01:40:47;;;;;;;34.42;30.70;;;14.80;99.90;;;;;;4993512;28;20223;-80
2023/05/07 01:43:15;;;;;;;36.88;32.78;;;14.80;99.90;;;;;;4993251;28;20200;-81
2023/05/07 01:45:42;;;;;;;42.70;36.80;;;14.80;99.90;;;;;;4993673;28;20200;-79
2023/05/07 01:48:12;;;;;;;45.88;38.25;;;14.80;99.90;;;;;;4993367;28;20668;-78
2023/05/07 01:50:39;;;;;;;39.30;33.53;;;14.80;99.90;;;;;;4993605;28;20464;-80
2023/05/07 01:53:07;;;;;;;45.08;35.70;;;14.80;99.90;;;;;;4994129;28;20283;-79
2023/05/07 01:55:34;;;;;;;47.88;39.45;;;14.80;99.90;;;;;;4993110;28;20219;-79
2023/05/07 01:58:02;;;;;;;52.20;42.38;;;14.80;99.90;;;;;;4993062;28;20212;-77
2023/05/07 02:00:29;;;;;;;53.63;41.58;;;14.80;99.90;;;;;;4993140;28;20287;-78
2023/05/07 02:02:56;;;;;;;53.70;41.88;;;14.80;99.90;;;;;;4992729;28;20283;-78
2023/05/07 02:05:23;;;;;;;51.20;42.55;;;14.80;99.90;;;;;;4992887;28;20211;-78
2023/05/07 02:07:50;;;;;;;55.55;43.85;;;14.80;99.90;;;;;;4993376;28;20368;-77
2023/05/07 02:10:17;;;;;;;54.83;44.33;;;14.80;99.90;;;;;;4993104;28;20223;-80
2023/05/07 02:12:44;;;;;;;55.22;43.47;;;14.90;99.90;;;;;;4992862;28;20207;-80
2023/05/07 02:15:12;;;;;;;53.70;41.45;;;14.80;99.90;;;;;;4992525;28;20200;-78
2023/05/07 02:17:59;;;;;;;55.63;45.30;;;14.80;99.90;;;;;;4992832;28;20222;-78
2023/05/07 02:20:26;;;;;;;53.65;42.70;;;14.80;99.90;;;;;;4993109;28;21010;-79
2023/05/07 02:22:53;;;;;;;62.33;47.20;;;14.80;99.90;;;;;;4992426;28;20668;-76
2023/05/07 02:25:20;;;;;;;56.78;45.00;;;14.80;99.90;;;;;;4992774;28;20208;-77
2023/05/07 02:27:47;;;;;;;59.83;46.92;;;14.80;99.90;;;;;;4992651;28;20223;-76
2023/05/07 02:30:16;;;;;;;52.05;39.45;;;14.80;99.90;;;;;;4986876;28;20215;-78
2023/05/07 02:32:43;;;;;;;48.17;41.25;;;14.80;99.90;;;;;;4973520;28;20209;-78
2023/05/07 02:35:10;;;;;;;57.53;44.63;;;14.80;99.90;;;;;;4982989;28;20290;-77
2023/05/07 02:37:37;;;;;;;56.55;44.92;;;14.80;99.90;;;;;;4991536;28;20231;-77
2023/05/07 02:40:04;;;;;;;57.10;45.42;;;14.80;99.90;;;;;;4992656;28;20662;-77
2023/05/07 02:42:31;;;;;;;51.92;41.10;;;14.80;99.90;;;;;;4992309;28;20235;-78
2023/05/07 02:44:58;;;;;;;62.42;47.78;;;14.80;99.90;;;;;;4992370;28;20200;-77
2023/05/07 02:47:28;;;;;;;52.80;41.65;;;14.80;99.90;;;;;;4992933;28;20204;-77
2023/05/07 02:49:55;;;;;;;53.42;42.60;;;14.80;99.90;;;;;;4992582;28;20543;-77
2023/05/07 02:52:22;;;;;;;55.90;42.78;;;14.80;99.90;;;;;;4992125;28;20585;-77
2023/05/07 02:54:49;;;;;;;49.53;40.25;;;14.70;99.90;;;;;;4993167;28;20196;-78
2023/05/07 02:57:16;;;;;;;54.38;42.92;;;14.80;99.90;;;;;;4991604;28;20291;-78
2023/05/07 02:59:43;;;;;;;50.83;41.13;;;14.80;99.90;;;;;;4992851;28;20250;-79
2023/05/07 03:02:10;;;;;;;49.73;38.70;;;14.70;99.90;;;;;;4992487;28;20311;-80
2023/05/07 03:04:39;;;;;;;52.83;41.92;;;14.70;99.90;;;;;;4992653;28;20200;-79
2023/05/07 03:07:06;;;;;;;51.80;39.60;;;14.70;99.90;;;;;;4992818;28;20196;-78
2023/05/07 03:09:33;;;;;;;50.63;40.28;;;14.70;99.90;;;;;;4992822;28;20207;-76
2023/05/07 03:12:01;;;;;;;46.55;38.03;;;14.70;99.90;;;;;;4991979;28;20204;-77
2023/05/07 03:14:28;;;;;;;47.37;39.53;;;14.70;99.90;;;;;;4992550;28;20490;-76
2023/05/07 03:16:55;;;;;;;42.08;33.95;;;14.70;99.90;;;;;;4992382;28;20216;-78
2023/05/07 03:19:22;;;;;;;43.45;35.35;;;14.70;99.90;;;;;;4991695;28;20231;-78
2023/05/07 03:21:50;;;;;;;40.08;32.70;;;14.70;99.90;;;;;;4992202;28;20531;-79
2023/05/07 03:24:17;;;;;;;36.38;31.58;;;14.70;99.90;;;;;;4991898;28;20208;-77
2023/05/07 03:26:44;;;;;;;36.35;29.95;;;14.70;99.90;;;;;;4991897;28;20318;-77
2023/05/07 03:29:11;;;;;;;35.15;29.45;;;14.70;99.90;;;;;;4991991;28;20231;-78
2023/05/07 03:31:38;;;;;;;33.55;28.08;;;14.70;99.90;;;;;;4992427;28;20219;-77
2023/05/07 03:34:05;;;;;;;29.65;24.92;;;14.60;99.90;;;;;;4992203;28;20196;-78
2023/05/07 03:36:32;;;;;;;27.93;24.67;;;14.60;99.90;;;;;;4991677;28;20296;-78
2023/05/07 03:39:00;;;;;;;26.35;22.48;;;14.60;99.90;;;;;;4991955;28;20319;-78
2023/05/07 03:41:29;;;;;;;25.77;21.23;;;14.60;99.90;;;;;;4990633;28;20223;-77
2023/05/07 03:43:56;;;;;;;23.10;19.88;;;14.60;99.90;;;;;;4991501;28;20196;-77
2023/05/07 03:46:25;;;;;;;23.48;20.80;;;14.60;99.90;;;;;;4991959;28;20220;-77
2023/05/07 03:48:52;;;;;;;24.05;19.98;;;14.60;99.90;;;;;;4993979;28;20207;-79
2023/05/07 03:51:19;;;;;;;21.58;17.63;;;14.60;99.90;;;;;;4994923;28;20305;-78
2023/05/07 03:53:46;;;;;;;21.10;18.88;;;14.60;99.90;;;;;;4995489;28;20328;-79
2023/05/07 03:56:14;;;;;;;18.05;15.90;;;14.60;99.90;;;;;;4995838;28;20200;-78
2023/05/07 03:58:41;;;;;;;22.60;19.58;;;14.60;99.90;;;;;;4995897;28;20211;-79
2023/05/07 04:01:08;;;;;;;21.88;18.65;;;14.50;99.90;;;;;;4994840;28;20231;-78
2023/05/07 04:03:35;;;;;;;22.13;18.45;;;14.50;99.90;;;;;;4995644;28;20290;-78
2023/05/07 04:06:02;;;;;;;23.38;19.80;;;14.50;99.90;;;;;;4995031;28;20215;-78
2023/05/07 04:08:29;;;;;;;22.13;18.52;;;14.50;99.90;;;;;;4994977;28;20630;-77
2023/05/07 04:10:56;;;;;;;22.03;18.50;;;14.50;99.90;;;;;;4995823;28;20227;-78
2023/05/07 04:13:25;;;;;;;20.52;17.40;;;14.50;99.90;;;;;;4994290;28;20612;-77
2023/05/07 04:15:52;;;;;;;18.88;16.95;;;14.50;99.90;;;;;;4994949;28;20204;-81
2023/05/07 04:18:19;;;;;;;19.17;16.92;;;14.50;99.90;;;;;;4995057;28;20208;-78
2023/05/07 04:20:46;;;;;;;19.27;17.23;;;14.50;99.90;;;;;;4995412;28;20229;-77
2023/05/07 04:23:13;;;;;;;18.95;16.67;;;14.50;99.90;;;;;;4994685;28;20224;-77
2023/05/07 04:25:40;;;;;;;16.75;15.05;;;14.50;99.90;;;;;;4994632;28;20210;-79
2023/05/07 04:28:07;;;;;;;15.90;13.65;;;14.50;99.90;;;;;;4994917;28;20227;-78
2023/05/07 04:30:35;;;;;;;16.42;13.18;;;14.50;99.90;;;;;;4994691;28;20204;-78
2023/05/07 04:33:02;;;;;;;15.35;12.88;;;14.40;99.90;;;;;;4995153;28;20283;-79
2023/05/07 04:35:29;;;;;;;13.18;11.88;;;14.50;99.90;;;;;;4994803;28;20204;-77
2023/05/07 04:37:56;;;;;;;14.00;12.20;;;14.50;99.90;;;;;;4994440;28;20231;-77
2023/05/07 04:40:23;;;;;;;14.13;12.13;;;14.50;99.90;;;;;;4993661;28;20231;-79
2023/05/07 04:42:50;;;;;;;13.77;11.75;;;14.50;99.90;;;;;;4994045;28;20258;-78
2023/05/07 04:45:17;;;;;;;12.95;11.27;;;14.50;99.90;;;;;;4994743;28;20589;-79
2023/05/07 04:47:45;;;;;;;14.57;11.23;;;14.50;99.90;;;;;;4995141;28;20290;-79
2023/05/07 04:50:12;;;;;;;12.18;10.23;;;14.50;99.90;;;;;;4993196;28;20675;-78
2023/05/07 04:52:38;;;;;;;11.35;10.27;;;14.50;99.90;;;;;;4995110;28;20202;-78
2023/05/07 04:55:06;;;;;;;12.90;10.43;;;14.50;99.90;;;;;;4994409;28;20613;-78
2023/05/07 04:57:33;;;;;;;11.68;9.82;;;14.50;99.90;;;;;;4993782;28;20286;-78
2023/05/07 05:00:00;;;;;;;11.63;9.82;;;14.60;99.90;;;;;;4994005;28;20202;-77
2023/05/07 05:02:26;;;;;;;12.23;11.00;;;14.60;99.90;;;;;;4993831;28;20318;-79
2023/05/07 05:04:55;;;;;;;10.55;9.40;;;14.70;99.90;;;;;;4993573;28;20200;-80
2023/05/07 05:07:21;;;;;;;10.40;9.27;;;14.70;99.90;;;;;;4994129;28;20199;-77
2023/05/07 05:09:48;;;;;;;10.73;9.63;;;14.70;99.90;;;;;;4994569;28;20290;-80
2023/05/07 05:12:15;;;;;;;9.68;8.15;;;14.80;99.90;;;;;;4993918;28;20204;-77
2023/05/07 05:14:42;;;;;;;10.10;7.43;;;14.80;99.90;;;;;;4994373;28;20295;-76
2023/05/07 05:17:09;;;;;;;10.07;8.98;;;14.80;99.90;;;;;;4994344;28;20282;-78
2023/05/07 05:19:36;;;;;;;11.40;8.93;;;14.90;99.90;;;;;;4993593;28;20620;-77
2023/05/07 05:22:04;;;;;;;9.25;8.27;;;14.90;99.90;;;;;;4993742;28;20274;-81
2023/05/07 05:24:31;;;;;;;9.38;7.97;;;14.90;99.90;;;;;;4994508;28;20747;-77
2023/05/07 05:26:59;;;;;;;9.05;8.10;;;15.00;99.90;;;;;;4993429;28;20604;-79
2023/05/07 05:29:26;;;;;;;8.35;7.00;;;15.00;99.90;;;;;;4993795;28;20691;-77
2023/05/07 05:31:53;;;;;;;9.60;8.70;;;15.10;99.90;;;;;;4993107;28;20291;-77
2023/05/07 05:34:21;;;;;;;9.82;8.65;;;15.10;99.90;;;;;;4993443;28;20254;-79
2023/05/07 05:36:48;;;;;;;8.75;7.70;;;15.10;99.90;;;;;;4993699;28;20548;-78
2023/05/07 05:39:16;;;;;;;11.77;9.52;;;15.20;99.90;;;;;;4992493;28;20287;-78
2023/05/07 05:41:43;;;;;;;10.98;9.23;;;15.20;99.90;;;;;;4993741;28;20335;-78
2023/05/07 05:44:10;;;;;;;9.50;8.60;;;15.20;99.90;;;;;;4994192;28;20196;-79
2023/05/07 05:46:37;;;;;;;9.93;8.77;;;15.20;99.90;;;;;;4993890;28;20283;-81
2023/05/07 05:49:04;;;;;;;13.50;9.35;;;15.30;99.90;;;;;;4993606;28;20235;-77
2023/05/07 05:51:31;;;;;;;10.77;9.18;;;15.30;99.90;;;;;;4994245;28;20199;-79
2023/05/07 05:53:58;;;;;;;11.63;10.43;;;15.30;99.90;;;;;;4992961;28;20630;-80
2023/05/07 05:56:26;;;;;;;12.80;10.32;;;15.40;99.90;;;;;;4994444;28;20287;-78
2023/05/07 05:58:53;;;;;;;10.10;8.60;;;15.40;99.90;;;;;;4994207;28;20481;-79
2023/05/07 06:01:20;;;;;;;13.60;11.35;;;15.50;99.90;;;;;;4993022;28;20228;-79
2023/05/07 06:03:47;;;;;;;12.30;11.02;;;15.50;99.90;;;;;;4994211;28;20605;-79
2023/05/07 06:06:14;;;;;;;10.13;9.13;;;15.60;99.90;;;;;;4993710;28;20570;-82
2023/05/07 06:08:41;;;;;;;12.30;11.00;;;15.60;99.90;;;;;;4993052;28;20220;-78
2023/05/07 06:11:08;;;;;;;12.73;11.40;;;15.60;99.90;;;;;;4993651;28;20605;-78
2023/05/07 06:13:36;;;;;;;11.70;10.45;;;15.70;99.90;;;;;;4993453;28;20692;-78
2023/05/07 06:16:03;;;;;;;12.18;10.95;;;15.70;99.90;;;;;;4992397;28;20251;-79
2023/05/07 06:18:30;;;;;;;11.07;10.00;;;15.80;99.90;;;;;;4993496;28;20196;-83
2023/05/07 06:20:57;;;;;;;15.50;11.45;;;15.90;99.90;;;;;;4993337;28;20218;-76
2023/05/07 06:23:24;;;;;;;15.07;11.98;;;16.00;99.90;;;;;;4993136;28;20670;-78
2023/05/07 06:25:51;;;;;;;12.82;11.50;;;16.10;99.90;;;;;;4993631;28;20250;-82
2023/05/07 06:28:18;;;;;;;18.63;14.15;;;16.20;99.90;;;;;;4992874;28;20204;-82
2023/05/07 06:30:48;;;;;;;17.27;15.05;;;16.30;99.90;;;;;;4993566;28;20203;-79
2023/05/07 06:33:15;;;;;;;16.15;14.55;;;16.40;99.90;;;;;;4993184;28;20287;-79
2023/05/07 06:35:42;;;;;;;16.75;15.02;;;16.40;99.90;;;;;;4992853;28;20204;-78
2023/05/07 06:38:09;;;;;;;18.25;16.38;;;16.50;99.90;;;;;;4992510;28;20207;-78
2023/05/07 06:40:36;;;;;;;16.83;15.02;;;16.50;99.90;;;;;;4993476;28;20204;-80
2023/05/07 06:43:02;;;;;;;18.05;16.10;;;16.60;99.90;;;;;;4992895;28;20245;-81
2023/05/07 06:45:29;;;;;;;20.40;18.40;;;16.60;99.90;;;;;;4992701;28;20842;-80
2023/05/07 06:47:58;;;;;;;21.02;18.30;;;16.70;99.90;;;;;;4992612;28;20240;-80
2023/05/07 06:50:25;;;;;;;22.65;20.35;;;16.80;99.90;;;;;;4992032;28;20633;-80
2023/05/07 06:52:51;;;;;;;19.10;17.23;;;16.80;99.90;;;;;;4973497;28;20201;-76
2023/05/07 06:55:19;;;;;;;23.95;21.67;;;16.90;99.90;;;;;;4984306;28;20218;-78
2023/05/07 06:57:45;;;;;;;23.85;21.55;;;17.10;99.90;;;;;;4991840;28;20597;-76
2023/05/07 07:00:14;;;;;;;20.25;18.23;;;17.10;99.90;;;;;;4992979;28;20776;-78
2023/05/07 07:02:41;;;;;;;21.63;19.52;;;17.10;99.90;;;;;;4992386;28;20522;-78
2023/05/07 07:05:10;;;;;;;18.35;16.58;;;17.30;99.90;;;;;;4991879;28;20608;-79
2023/05/07 07:07:37;;;;;;;16.90;14.38;;;17.50;99.90;;;;;;4973282;28;20260;-81
2023/05/07 07:10:05;;;;;;;15.25;13.57;;;17.60;99.90;;;;;;4973773;28;20200;-78
2023/05/07 07:12:32;;;;;;;14.85;13.35;;;17.50;99.90;;;;;;4973064;28;20260;-78
2023/05/07 07:14:59;;;;;;;13.77;12.23;;;17.50;99.90;;;;;;4978936;28;20208;-80
2023/05/07 07:17:26;;;;;;;13.27;11.90;;;17.70;99.90;;;;;;4971761;28;20204;-78
2023/05/07 07:19:53;;;;;;;12.85;11.55;;;18.10;99.90;;;;;;4986159;28;20281;-79
2023/05/07 07:22:21;;;;;;;13.40;11.55;;;18.60;99.90;;;;;;5009949;28;20695;-78
2023/05/07 07:24:48;;;;;;;11.52;10.30;;;18.90;99.90;;;;;;5011586;28;20217;-78
2023/05/07 07:27:15;;;;;;;12.45;10.35;;;19.30;99.90;;;;;;5002215;28;20221;-78
2023/05/07 07:29:42;;;;;;;11.75;10.57;;;19.30;99.90;;;;;;5015388;28;20286;-78
2023/05/07 07:32:09;;;;;;;12.93;11.63;;;19.50;99.90;;;;;;5002731;28;20616;-79
2023/05/07 07:34:35;;;;;;;11.57;10.45;;;19.60;99.90;;;;;;5005891;28;20207;-78
2023/05/07 07:37:05;;;;;;;11.45;10.27;;;19.90;99.90;;;;;;5015984;28;20199;-78
2023/05/07 07:39:34;;;;;;;12.18;10.98;;;20.20;99.90;;;;;;5014746;28;20841;-78
2023/05/07 07:42:01;;;;;;;12.40;11.20;;;20.50;99.90;;;;;;5007340;28;20611;-78
2023/05/07 07:44:28;;;;;;;12.95;10.40;;;20.70;99.90;;;;;;4995581;28;20668;-80
2023/05/07 07:46:55;;;;;;;11.07;10.07;;;20.80;99.90;;;;;;4995249;28;20193;-78
2023/05/07 07:49:22;;;;;;;11.57;10.48;;;20.90;99.90;;;;;;4995902;28;20204;-78
2023/05/07 07:51:48;;;;;;;10.95;9.85;;;20.90;99.90;;;;;;4994545;28;20212;-78
2023/05/07 07:54:16;;;;;;;12.43;11.23;;;20.90;99.90;;;;;;4995051;28;20204;-78
2023/05/07 07:56:44;;;;;;;13.07;11.60;;;20.60;99.90;;;;;;4995556;28;20235;-79
2023/05/07 07:59:11;;;;;;;13.57;11.50;;;20.40;99.90;;;;;;4995518;28;20223;-79
2023/05/07 08:01:38;;;;;;;12.07;10.88;;;20.40;99.90;;;;;;4994577;28;20519;-78
2023/05/07 08:04:05;;;;;;;11.18;10.05;;;20.50;99.90;;;;;;4994875;28;20780;-79
2023/05/07 08:06:32;;;;;;;13.65;11.07;;;20.70;99.90;;;;;;4995274;28;20200;-78
2023/05/07 08:08:59;;;;;;;12.27;11.07;;;20.80;99.90;;;;;;4994896;28;20317;-79
2023/05/07 08:11:26;;;;;;;13.98;11.48;;;21.00;99.90;;;;;;4994998;28;20763;-79
2023/05/07 08:13:55;;;;;;;12.65;10.88;;;21.00;99.90;;;;;;4994860;28;20207;-80
2023/05/07 08:16:22;;;;;;;12.77;11.48;;;20.90;99.90;;;;;;4994731;28;20528;-78
2023/05/07 08:18:48;;;;;;;12.57;10.13;;;20.80;99.90;;;;;;4994808;28;20620;-78
2023/05/07 08:21:16;;;;;;;12.35;11.20;;;20.70;99.90;;;;;;4994593;28;20211;-79
2023/05/07 08:23:43;;;;;;;12.88;11.27;;;20.80;99.90;;;;;;4995117;28;20220;-79
2023/05/07 08:26:09;;;;;;;13.35;12.05;;;21.10;99.90;;;;;;4995256;28;20291;-78
2023/05/07 08:28:36;;;;;;;11.35;10.00;;;21.10;99.90;;;;;;4994078;28;20204;-81
2023/05/07 08:31:05;;;;;;;13.38;12.07;;;21.40;99.90;;;;;;4995008;28;20888;-79
2023/05/07 08:33:32;;;;;;;12.23;11.05;;;21.60;99.90;;;;;;4994945;28;20210;-79
2023/05/07 08:35:59;;;;;;;10.90;9.82;;;21.60;99.90;;;;;;4993146;28;20239;-78
2023/05/07 08:38:26;;;;;;;11.73;10.50;;;21.80;99.90;;;;;;4994546;28;20208;-79
2023/05/07 08:40:53;;;;;;;9.45;8.55;;;21.80;99.90;;;;;;4994669;28;20223;-80
2023/05/07 08:43:22;;;;;;;9.90;8.93;;;22.00;99.90;;;;;;4993479;28;20227;-80
2023/05/07 08:45:54;;;;;;;10.70;9.60;;;22.50;99.90;;;;;;4992653;28;20203;-78
2023/05/07 08:48:26;;;;;;;9.82;8.63;;;22.90;99.90;;;;;;4992948;28;20211;-79
2023/05/07 08:51:03;;;;;;;8.50;7.68;;;23.10;99.90;;;;;;4995085;28;20212;-79
2023/05/07 08:53:30;;;;;;;9.93;8.93;;;23.00;99.90;;;;;;4995045;28;20485;-77
2023/05/07 08:55:57;;;;;;;9.52;7.95;;;23.10;99.90;;;;;;4993391;28;20204;-80
2023/05/07 08:58:25;;;;;;;9.20;8.10;;;23.10;99.90;;;;;;4996629;28;20208;-78
2023/05/07 09:00:53;;;;;;;9.38;7.97;;;22.80;99.90;;;;;;4991025;28;20224;-79
2023/05/07 09:03:22;;;;;;;9.82;6.85;;;22.50;99.90;;;;;;4991583;28;20245;-79
2023/05/07 09:05:48;;;;;;;8.23;7.43;;;22.70;99.90;;;;;;4992938;28;20214;-79
2023/05/07 09:08:16;;;;;;;7.03;6.32;;;22.60;99.90;;;;;;4991851;28;20204;-81
2023/05/07 09:10:43;;;;;;;6.45;5.30;;;22.80;99.90;;;;;;4992616;28;20263;-79
2023/05/07 09:13:12;;;;;;;7.80;6.50;;;23.10;99.90;;;;;;4992074;28;20195;-81
2023/05/07 09:15:39;;;;;;;5.72;5.22;;;23.30;99.90;;;;;;4991962;28;20207;-80
2023/05/07 09:18:06;;;;;;;6.97;6.28;;;23.40;99.90;;;;;;4991936;28;20207;-79
2023/05/07 09:20:37;;;;;;;8.18;5.80;;;23.70;99.90;;;;;;4992430;28;20335;-80
2023/05/07 09:23:04;;;;;;;6.97;5.90;;;24.00;99.90;;;;;;4992016;28;20215;-81
2023/05/07 09:25:32;;;;;;;7.85;6.47;;;24.20;99.90;;;;;;4992443;28;20226;-81
2023/05/07 09:28:00;;;;;;;6.68;5.50;;;23.90;99.90;;;;;;4989005;28;20671;-80
2023/05/07 09:30:30;;;;;;;7.50;6.13;;;23.70;99.90;;;;;;4991919;28;20291;-80
2023/05/07 09:32:57;;;;;;;7.05;6.32;;;23.60;99.90;;;;;;4991987;28;20310;-81
2023/05/07 09:35:27;;;;;;;7.68;6.53;;;23.50;99.90;;;;;;4993364;28;20817;-80
2023/05/07 09:37:56;;;;;;;8.00;7.30;;;23.40;99.90;;;;;;4994322;28;20832;-80
2023/05/07 09:40:25;;;;;;;8.20;7.40;;;23.20;99.90;;;;;;4992332;28;20258;-80
2023/05/07 09:42:52;;;;;;;7.72;6.68;;;23.30;99.90;;;;;;4993650;28;20611;-81
2023/05/07 09:45:23;;;;;;;7.53;6.82;;;23.30;99.90;;;;;;4993445;28;20196;-80
2023/05/07 09:47:54;;;;;;;6.75;6.05;;;23.50;99.90;;;;;;4992991;28;20480;-80
2023/05/07 09:50:23;;;;;;;6.30;5.68;;;23.70;99.90;;;;;;4994202;28;20283;-81
2023/05/07 09:52:50;;;;;;;6.03;5.43;;;23.70;99.90;;;;;;4992578;28;20208;-81
2023/05/07 09:55:19;;;;;;;5.30;4.18;;;23.70;99.90;;;;;;4990147;28;20603;-80
2023/05/07 09:57:46;;;;;;;4.18;3.55;;;23.70;99.90;;;;;;4990564;28;20262;-80
2023/05/07 10:00:15;;;;;;;4.57;4.18;;;23.60;99.90;;;;;;4989534;28;20781;-78
2023/05/07 10:02:47;;;;;;;5.47;4.50;;;23.80;99.90;;;;;;4989793;28;20204;-77
2023/05/07 10:05:15;;;;;;;4.68;4.25;;;23.90;99.90;;;;;;4982962;28;20278;-77
2023/05/07 10:07:42;;;;;;;5.30;4.80;;;23.80;99.90;;;;;;4989999;28;20203;-78
2023/05/07 10:10:10;;;;;;;5.30;4.80;;;23.60;99.90;;;;;;4990214;28;20210;-78
2023/05/07 10:12:40;;;;;;;8.05;7.32;;;23.30;99.90;;;;;;4991341;28;20235;-78
2023/05/07 10:15:08;;;;;;;10.73;7.05;;;23.30;99.90;;;;;;4989832;28;20235;-77
2023/05/07 10:17:36;;;;;;;7.55;6.55;;;23.00;99.90;;;;;;4992265;28;20216;-78
2023/05/07 10:20:04;;;;;;;7.75;6.13;;;23.00;99.90;;;;;;4992170;28;20204;-78
2023/05/07 10:22:35;;;;;;;8.68;6.57;;;22.80;99.90;;;;;;4991776;28;20258;-79
2023/05/07 10:25:05;;;;;;;8.15;6.60;;;22.90;99.90;;;;;;4992965;28;20803;-78
2023/05/07 10:27:32;;;;;;;6.97;5.88;;;22.70;99.90;;;;;;4991989;28;20196;-78
2023/05/07 10:30:13;;;;;;;7.88;6.63;;;22.80;99.90;;;;;;4992405;28;20215;-79
2023/05/07 10:32:43;;;;;;;7.15;6.45;;;22.90;99.90;;;;;;4992212;28;20192;-79
2023/05/07 10:35:14;;;;;;;7.20;6.03;;;23.00;99.90;;;;;;4992330;28;20192;-78
2023/05/07 10:37:42;;;;;;;9.30;7.82;;;23.10;99.90;;;;;;4992594;28;20208;-78
2023/05/07 10:40:11;;;;;;;6.13;5.10;;;23.20;99.90;;;;;;4992376;28;20266;-79
2023/05/07 10:42:38;;;;;;;5.00;3.90;;;23.20;99.90;;;;;;4992186;28;20243;-79
2023/05/07 10:45:16;;;;;;;6.65;3.78;;;23.30;99.90;;;;;;4992051;28;20216;-78
2023/05/07 10:48:09;;;;;;;7.53;4.15;;;23.50;99.90;;;;;;4992814;28;20259;-79
2023/05/07 10:50:37;;;;;;;6.80;3.83;;;23.70;99.90;;;;;;4992275;28;20200;-79
2023/05/07 10:53:28;;;;;;;5.38;3.47;;;23.60;99.90;;;;;;4992762;28;20814;-78
2023/05/07 10:56:34;;;;;;;5.45;3.70;;;23.60;99.90;;;;;;4991015;28;20300;-78
2023/05/07 10:59:32;;;;;;;4.82;2.83;;;23.60;99.90;;;;;;4991737;28;20237;-78
2023/05/07 11:02:02;;;;;;;7.05;4.50;;;23.50;99.90;;;;;;4992149;28;20215;-78
2023/05/07 11:04:31;;;;;;;6.53;3.63;;;23.40;99.90;;;;;;4990926;28;20218;-78
2023/05/07 11:07:24;;;;;;;7.38;3.63;;;23.10;99.90;;;;;;4992393;28;20664;-78
2023/05/07 11:10:03;;;;;;;5.50;4.57;;;23.20;99.90;;;;;;4991012;28;20302;-78
2023/05/07 11:12:55;;;;;;;5.07;4.03;;;23.20;99.90;;;;;;4989645;28;20505;-77
2023/05/07 11:15:39;;;;;;;3.70;3.00;;;23.00;99.90;;;;;;4977732;28;20212;-78
2023/05/07 11:18:08;;;;;;;7.40;3.22;;;23.10;99.90;;;;;;4985249;28;20199;-78
2023/05/07 11:20:56;;;;;;;6.03;3.88;;;23.00;99.90;;;;;;4989745;28;20204;-77
2023/05/07 11:24:08;;;;;;;5.22;3.40;;;22.90;99.90;;;;;;4989432;28;20278;-78
2023/05/07 11:26:47;;;;;;;5.32;3.60;;;22.80;99.90;;;;;;4989086;28;20209;-79
2023/05/07 11:29:16;;;;;;;4.93;2.50;;;22.70;99.90;;;;;;4989445;28;20210;-78
2023/05/07 11:31:43;;;;;;;6.20;4.25;;;22.50;99.90;;;;;;4989386;28;20948;-79
2023/05/07 11:34:12;;;;;;;5.70;4.18;;;22.50;99.90;;;;;;4991982;28;20202;-79
2023/05/07 11:36:44;;;;;;;9.88;8.40;;;22.40;99.90;;;;;;4991762;28;20560;-78
2023/05/07 11:39:31;;;;;;;9.02;6.90;;;22.30;99.90;;;;;;4991012;28;20659;-78
2023/05/07 11:41:58;;;;;;;10.25;8.13;;;22.10;99.90;;;;;;4987891;28;20606;-79
2023/05/07 11:44:25;;;;;;;10.50;7.50;;;21.90;99.90;;;;;;4982994;28;20317;-79
2023/05/07 11:46:52;;;;;;;9.63;7.65;;;21.70;99.90;;;;;;4982666;28;20200;-78
2023/05/07 11:49:20;;;;;;;11.80;8.18;;;21.60;99.90;;;;;;4990317;28;20216;-79
2023/05/07 11:51:47;;;;;;;10.95;8.25;;;21.40;99.90;;;;;;4991414;28;20654;-77
2023/05/07 11:54:17;;;;;;;8.40;7.60;;;21.30;99.90;;;;;;4985097;28;20208;-78
2023/05/07 11:56:46;;;;;;;12.35;9.20;;;21.20;99.90;;;;;;4983773;28;20288;-78
2023/05/07 11:59:18;;;;;;;13.20;10.27;;;21.20;99.90;;;;;;4982560;28;20204;-78
2023/05/07 12:01:46;;;;;;;9.70;8.70;;;21.00;99.90;;;;;;4983294;28;20227;-78
2023/05/07 12:04:13;;;;;;;10.50;8.15;;;20.90;99.90;;;;;;4991789;28;20216;-78
2023/05/07 12:06:42;;;;;;;12.50;9.95;;;20.70;99.90;;;;;;4991463;28;20411;-78
2023/05/07 12:09:11;;;;;;;9.60;8.60;;;20.60;99.90;;;;;;4991918;28;20299;-77
2023/05/07 12:11:39;;;;;;;10.95;9.57;;;20.50;99.90;;;;;;4994954;28;20199;-78
2023/05/07 12:14:06;;;;;;;11.70;9.98;;;20.40;99.90;;;;;;4991349;28;20235;-79
2023/05/07 12:16:33;;;;;;;9.10;8.20;;;20.40;99.90;;;;;;4994152;28;20204;-78
2023/05/07 12:19:01;;;;;;;9.30;8.20;;;20.30;99.90;;;;;;4993960;28;20208;-78
2023/05/07 12:21:28;;;;;;;12.10;10.75;;;20.30;99.90;;;;;;4991561;28;20220;-78
2023/05/07 12:23:57;;;;;;;13.60;12.38;;;20.20;99.90;;;;;;4994195;28;20235;-78
2023/05/07 12:26:24;;;;;;;14.25;12.63;;;20.20;99.90;;;;;;4994330;28;20617;-78
2023/05/07 12:28:51;;;;;;;11.55;10.43;;;20.10;99.90;;;;;;4993742;28;20669;-78
2023/05/07 12:31:19;;;;;;;13.52;12.32;;;20.10;99.90;;;;;;4981693;28;20215;-78
2023/05/07 12:33:46;;;;;;;15.05;13.50;;;20.10;99.90;;;;;;4992916;28;20200;-79
2023/05/07 12:36:14;;;;;;;17.10;15.50;;;20.00;99.90;;;;;;4992534;28;20211;-80
2023/05/07 12:38:42;;;;;;;17.63;15.90;;;20.00;99.90;;;;;;4992888;28;20302;-78
2023/05/07 12:41:12;;;;;;;21.75;19.75;;;19.90;99.90;;;;;;4992356;28;20276;-79